sensor_id;sensor_type;location;lat;lon;timestamp;pressure;altitude;pressure_sealevel;temperature;humidity
13974;BME280;7060;43.770;4.008;2023-02-19T00:00:08;102212.63;;;4.17;68.59
13974;BME280;7060;43.770;4.008;2023-02-19T00:02:40;102216.47;;;4.09;69.28
13974;BME280;7060;43.770;4.008;2023-02-19T00:05:11;102213.50;;;3.97;68.80
13974;BME280;7060;43.770;4.008;2023-02-19T00:07:39;102209.34;;;3.91;69.77
13974;BME280;7060;43.770;4.008;2023-02-19T00:10:09;102213.19;;;3.84;69.19
13974;BME280;7060;43.770;4.008;2023-02-19T00:12:37;102209.69;;;3.84;69.68
13974;BME280;7060;43.770;4.008;2023-02-19T00:15:07;102211.41;;;3.85;69.74
13974;BME280;7060;43.770;4.008;2023-02-19T00:17:36;102205.38;;;3.81;69.80
13974;BME280;7060;43.770;4.008;2023-02-19T00:20:05;102207.28;;;3.78;69.89
13974;BME280;7060;43.770;4.008;2023-02-19T00:22:33;102209.94;;;3.78;69.91
13974;BME280;7060;43.770;4.008;2023-02-19T00:25:02;102210.78;;;3.78;69.48
13974;BME280;7060;43.770;4.008;2023-02-19T00:27:31;102207.41;;;3.74;69.70
13974;BME280;7060;43.770;4.008;2023-02-19T00:29:59;102211.91;;;3.72;69.98
13974;BME280;7060;43.770;4.008;2023-02-19T00:32:29;102207.34;;;3.76;69.27
13974;BME280;7060;43.770;4.008;2023-02-19T00:34:59;102213.56;;;3.75;70.26
13974;BME280;7060;43.770;4.008;2023-02-19T00:37:28;102206.69;;;3.71;69.84
13974;BME280;7060;43.770;4.008;2023-02-19T00:39:57;102209.75;;;3.62;69.91
13974;BME280;7060;43.770;4.008;2023-02-19T00:42:25;102205.56;;;3.56;70.12
13974;BME280;7060;43.770;4.008;2023-02-19T00:44:54;102211.72;;;3.57;69.69
13974;BME280;7060;43.770;4.008;2023-02-19T00:47:22;102205.31;;;3.62;69.71
13974;BME280;7060;43.770;4.008;2023-02-19T00:49:52;102196.22;;;3.68;70.13
13974;BME280;7060;43.770;4.008;2023-02-19T00:52:21;102198.09;;;3.66;69.50
13974;BME280;7060;43.770;4.008;2023-02-19T00:54:50;102198.88;;;3.68;69.97
13974;BME280;7060;43.770;4.008;2023-02-19T00:57:18;102194.75;;;3.62;68.95
13974;BME280;7060;43.770;4.008;2023-02-19T00:59:46;102185.53;;;3.51;70.07
13974;BME280;7060;43.770;4.008;2023-02-19T01:02:15;102191.88;;;3.47;69.75
13974;BME280;7060;43.770;4.008;2023-02-19T01:04:43;102197.41;;;3.40;70.21
13974;BME280;7060;43.770;4.008;2023-02-19T01:07:13;102190.69;;;3.33;70.08
13974;BME280;7060;43.770;4.008;2023-02-19T01:09:43;102191.47;;;3.35;70.76
13974;BME280;7060;43.770;4.008;2023-02-19T01:12:11;102184.53;;;3.33;70.65
13974;BME280;7060;43.770;4.008;2023-02-19T01:14:40;102192.84;;;3.44;69.70
13974;BME280;7060;43.770;4.008;2023-02-19T01:17:08;102190.28;;;3.42;70.17
13974;BME280;7060;43.770;4.008;2023-02-19T01:19:36;102196.53;;;3.40;70.29
13974;BME280;7060;43.770;4.008;2023-02-19T01:22:05;102191.41;;;3.37;70.38
13974;BME280;7060;43.770;4.008;2023-02-19T01:24:35;102186.31;;;3.32;69.67
13974;BME280;7060;43.770;4.008;2023-02-19T01:27:03;102188.22;;;3.29;70.11
13974;BME280;7060;43.770;4.008;2023-02-19T01:29:32;102188.22;;;3.29;69.85
13974;BME280;7060;43.770;4.008;2023-02-19T01:32:01;102182.19;;;3.25;70.52
13974;BME280;7060;43.770;4.008;2023-02-19T01:34:29;102180.59;;;3.21;70.20
13974;BME280;7060;43.770;4.008;2023-02-19T01:37:00;102179.13;;;3.14;70.74
13974;BME280;7060;43.770;4.008;2023-02-19T01:39:29;102176.69;;;3.10;70.20
13974;BME280;7060;43.770;4.008;2023-02-19T01:41:59;102182.69;;;3.13;70.57
13974;BME280;7060;43.770;4.008;2023-02-19T01:45:12;102178.47;;;3.09;69.85
13974;BME280;7060;43.770;4.008;2023-02-19T01:47:44;102172.81;;;2.96;70.69
13974;BME280;7060;43.770;4.008;2023-02-19T01:50:13;102172.81;;;2.96;70.49
13974;BME280;7060;43.770;4.008;2023-02-19T01:52:41;102175.34;;;2.99;70.75
13974;BME280;7060;43.770;4.008;2023-02-19T01:55:11;102168.09;;;3.04;70.76
13974;BME280;7060;43.770;4.008;2023-02-19T01:57:44;102167.06;;;3.08;69.86
13974;BME280;7060;43.770;4.008;2023-02-19T02:00:17;102162.63;;;3.09;70.23
13974;BME280;7060;43.770;4.008;2023-02-19T02:02:48;102163.50;;;3.10;70.50
13974;BME280;7060;43.770;4.008;2023-02-19T02:05:24;102154.22;;;2.99;70.19
13974;BME280;7060;43.770;4.008;2023-02-19T02:07:57;102158.06;;;2.91;70.41
13974;BME280;7060;43.770;4.008;2023-02-19T02:10:44;102153.94;;;2.84;70.21
13974;BME280;7060;43.770;4.008;2023-02-19T02:13:14;102146.03;;;2.84;70.52
13974;BME280;7060;43.770;4.008;2023-02-19T02:15:50;102140.22;;;2.76;70.16
13974;BME280;7060;43.770;4.008;2023-02-19T02:18:27;102149.41;;;2.87;70.27
13974;BME280;7060;43.770;4.008;2023-02-19T02:21:08;102160.78;;;2.89;70.41
13974;BME280;7060;43.770;4.008;2023-02-19T02:23:49;102146.88;;;2.84;70.33
13974;BME280;7060;43.770;4.008;2023-02-19T02:26:33;102143.59;;;2.79;69.56
13974;BME280;7060;43.770;4.008;2023-02-19T02:29:24;102142.91;;;2.74;69.97
13974;BME280;7060;43.770;4.008;2023-02-19T02:31:58;102142.97;;;2.72;70.64
13974;BME280;7060;43.770;4.008;2023-02-19T02:34:36;102140.44;;;2.69;70.64
13974;BME280;7060;43.770;4.008;2023-02-19T02:37:07;102136.31;;;2.62;70.53
13974;BME280;7060;43.770;4.008;2023-02-19T02:39:40;102132.03;;;2.60;70.87
13974;BME280;7060;43.770;4.008;2023-02-19T02:42:09;102130.25;;;2.60;70.93
13974;BME280;7060;43.770;4.008;2023-02-19T02:45:22;102128.78;;;2.53;70.75
13974;BME280;7060;43.770;4.008;2023-02-19T02:48:23;102132.47;;;2.49;71.18
13974;BME280;7060;43.770;4.008;2023-02-19T02:50:57;102131.38;;;2.55;70.25
13974;BME280;7060;43.770;4.008;2023-02-19T02:53:34;102131.03;;;2.62;70.38
13974;BME280;7060;43.770;4.008;2023-02-19T02:56:22;102135.34;;;2.65;70.66
13974;BME280;7060;43.770;4.008;2023-02-19T02:58:53;102118.59;;;2.66;70.19
13974;BME280;7060;43.770;4.008;2023-02-19T03:01:27;102124.66;;;2.68;70.06
13974;BME280;7060;43.770;4.008;2023-02-19T03:04:25;102080.19;;;2.35;70.36
13974;BME280;7060;43.770;4.008;2023-02-19T03:06:55;102114.00;;;2.49;70.96
13974;BME280;7060;43.770;4.008;2023-02-19T03:09:30;102112.31;;;2.47;70.76
13974;BME280;7060;43.770;4.008;2023-02-19T03:12:02;102115.88;;;2.46;71.08
13974;BME280;7060;43.770;4.008;2023-02-19T03:14:53;102102.06;;;2.39;70.64
13974;BME280;7060;43.770;4.008;2023-02-19T03:17:43;102109.06;;;2.40;70.56
13974;BME280;7060;43.770;4.008;2023-02-19T03:20:33;102107.03;;;2.25;70.48
13974;BME280;7060;43.770;4.008;2023-02-19T03:23:05;102109.41;;;2.31;71.50
13974;BME280;7060;43.770;4.008;2023-02-19T03:25:37;102105.63;;;2.38;71.49
13974;BME280;7060;43.770;4.008;2023-02-19T03:28:40;102049.69;;;2.06;71.11
13974;BME280;7060;43.770;4.008;2023-02-19T03:31:29;102103.84;;;2.38;71.26
13974;BME280;7060;43.770;4.008;2023-02-19T03:34:04;102107.50;;;2.34;71.10
13974;BME280;7060;43.770;4.008;2023-02-19T03:36:43;102102.22;;;2.34;71.78
13974;BME280;7060;43.770;4.008;2023-02-19T03:39:15;102103.84;;;2.38;71.70
13974;BME280;7060;43.770;4.008;2023-02-19T03:41:50;102107.53;;;2.56;72.56
13974;BME280;7060;43.770;4.008;2023-02-19T03:44:25;102105.09;;;2.73;71.82
13974;BME280;7060;43.770;4.008;2023-02-19T03:46:59;102103.38;;;2.72;71.14
13974;BME280;7060;43.770;4.008;2023-02-19T03:49:41;102111.91;;;2.79;71.47
13974;BME280;7060;43.770;4.008;2023-02-19T03:52:20;102108.94;;;2.87;71.80
13974;BME280;7060;43.770;4.008;2023-02-19T03:54:57;102112.06;;;2.96;71.89
13974;BME280;7060;43.770;4.008;2023-02-19T03:57:35;102112.19;;;2.93;70.77
13974;BME280;7060;43.770;4.008;2023-02-19T04:00:10;102096.84;;;2.81;71.20
13974;BME280;7060;43.770;4.008;2023-02-19T04:02:44;102108.53;;;2.76;71.67
13974;BME280;7060;43.770;4.008;2023-02-19T04:05:16;102099.88;;;2.72;70.98
13974;BME280;7060;43.770;4.008;2023-02-19T04:07:49;102100.91;;;2.68;71.31
13974;BME280;7060;43.770;4.008;2023-02-19T04:10:26;102102.94;;;2.61;71.08
13974;BME280;7060;43.770;4.008;2023-02-19T04:13:00;102104.13;;;2.54;71.63
13974;BME280;7060;43.770;4.008;2023-02-19T04:15:31;102101.78;;;2.47;71.38
13974;BME280;7060;43.770;4.008;2023-02-19T04:18:04;102092.53;;;2.35;71.61
13974;BME280;7060;43.770;4.008;2023-02-19T04:20:38;102109.19;;;2.37;71.38
13974;BME280;7060;43.770;4.008;2023-02-19T04:23:09;102102.13;;;2.37;71.21
13974;BME280;7060;43.770;4.008;2023-02-19T04:25:41;102106.25;;;2.45;71.23
13974;BME280;7060;43.770;4.008;2023-02-19T04:28:12;102107.16;;;2.44;71.06
13974;BME280;7060;43.770;4.008;2023-02-19T04:30:42;102114.91;;;2.48;71.26
13974;BME280;7060;43.770;4.008;2023-02-19T04:33:12;102112.03;;;2.54;71.12
13974;BME280;7060;43.770;4.008;2023-02-19T04:35:40;102107.00;;;2.48;70.97
13974;BME280;7060;43.770;4.008;2023-02-19T04:38:10;102106.19;;;2.46;71.55
13974;BME280;7060;43.770;4.008;2023-02-19T04:40:40;102110.66;;;2.44;70.76
13974;BME280;7060;43.770;4.008;2023-02-19T04:43:08;102103.78;;;2.40;71.03
13974;BME280;7060;43.770;4.008;2023-02-19T04:45:37;102116.88;;;2.43;71.68
13974;BME280;7060;43.770;4.008;2023-02-19T04:48:05;102112.16;;;2.51;71.13
13974;BME280;7060;43.770;4.008;2023-02-19T04:50:36;102112.69;;;2.59;71.71
13974;BME280;7060;43.770;4.008;2023-02-19T04:53:04;102113.53;;;2.60;71.75
13974;BME280;7060;43.770;4.008;2023-02-19T04:55:37;102115.38;;;2.58;71.80
13974;BME280;7060;43.770;4.008;2023-02-19T04:58:06;102116.44;;;2.54;71.49
13974;BME280;7060;43.770;4.008;2023-02-19T05:00:34;102115.72;;;2.50;71.33
13974;BME280;7060;43.770;4.008;2023-02-19T05:03:02;102115.66;;;2.52;71.35
13974;BME280;7060;43.770;4.008;2023-02-19T05:05:31;102110.59;;;2.46;70.50
13974;BME280;7060;43.770;4.008;2023-02-19T05:07:59;102110.03;;;2.37;71.15
13974;BME280;7060;43.770;4.008;2023-02-19T05:10:28;102116.47;;;2.30;71.35
13974;BME280;7060;43.770;4.008;2023-02-19T05:12:58;102112.91;;;2.31;71.16
13974;BME280;7060;43.770;4.008;2023-02-19T05:15:26;102107.56;;;2.33;71.31
13974;BME280;7060;43.770;4.008;2023-02-19T05:17:54;102113.88;;;2.29;71.04
13974;BME280;7060;43.770;4.008;2023-02-19T05:20:24;102111.44;;;2.24;71.17
13974;BME280;7060;43.770;4.008;2023-02-19T05:22:52;102104.56;;;2.20;71.18
13974;BME280;7060;43.770;4.008;2023-02-19T05:25:20;102109.03;;;2.18;71.51
13974;BME280;7060;43.770;4.008;2023-02-19T05:27:49;102108.06;;;2.21;71.57
13974;BME280;7060;43.770;4.008;2023-02-19T05:30:39;102106.34;;;2.20;71.02
13974;BME280;7060;43.770;4.008;2023-02-19T05:33:07;102107.38;;;2.16;71.11
13974;BME280;7060;43.770;4.008;2023-02-19T05:35:40;102097.41;;;2.00;70.89
13974;BME280;7060;43.770;4.008;2023-02-19T05:38:09;102120.03;;;2.06;71.11
13974;BME280;7060;43.770;4.008;2023-02-19T05:40:38;102108.75;;;2.02;71.16
13974;BME280;7060;43.770;4.008;2023-02-19T05:43:06;102114.94;;;2.01;71.79
13974;BME280;7060;43.770;4.008;2023-02-19T05:45:36;102111.22;;;2.07;71.83
13974;BME280;7060;43.770;4.008;2023-02-19T05:48:06;102111.16;;;2.09;71.60
13974;BME280;7060;43.770;4.008;2023-02-19T05:50:35;102100.97;;;1.99;71.33
13974;BME280;7060;43.770;4.008;2023-02-19T05:53:11;102107.81;;;2.03;71.63
13974;BME280;7060;43.770;4.008;2023-02-19T05:55:40;102107.97;;;2.00;71.54
13974;BME280;7060;43.770;4.008;2023-02-19T05:58:08;102114.28;;;1.96;71.43
13974;BME280;7060;43.770;4.008;2023-02-19T06:00:36;102116.00;;;1.97;71.05
13974;BME280;7060;43.770;4.008;2023-02-19T06:03:06;102116.03;;;1.96;71.29
13974;BME280;7060;43.770;4.008;2023-02-19T06:05:36;102117.03;;;1.93;71.86
13974;BME280;7060;43.770;4.008;2023-02-19T06:08:04;102118.00;;;1.91;71.40
13974;BME280;7060;43.770;4.008;2023-02-19T06:10:33;102114.31;;;1.95;71.16
13974;BME280;7060;43.770;4.008;2023-02-19T06:13:03;102115.25;;;1.94;71.42
13974;BME280;7060;43.770;4.008;2023-02-19T06:15:31;102115.47;;;1.88;71.03
13974;BME280;7060;43.770;4.008;2023-02-19T06:18:00;102115.63;;;1.83;71.16
13974;BME280;7060;43.770;4.008;2023-02-19T06:20:30;102119.19;;;1.82;71.43
13974;BME280;7060;43.770;4.008;2023-02-19T06:22:59;102117.56;;;1.78;71.39
13974;BME280;7060;43.770;4.008;2023-02-19T06:25:27;102121.22;;;1.74;71.62
13974;BME280;7060;43.770;4.008;2023-02-19T06:27:55;102116.94;;;1.71;71.83
13974;BME280;7060;43.770;4.008;2023-02-19T06:30:24;102128.28;;;1.73;72.03
13974;BME280;7060;43.770;4.008;2023-02-19T06:32:52;102121.22;;;1.74;71.75
13974;BME280;7060;43.770;4.008;2023-02-19T06:35:21;102098.13;;;1.57;71.71
13974;BME280;7060;43.770;4.008;2023-02-19T06:37:51;102115.84;;;1.77;71.45
13974;BME280;7060;43.770;4.008;2023-02-19T06:40:19;102128.28;;;1.73;71.58
13974;BME280;7060;43.770;4.008;2023-02-19T06:42:47;102122.94;;;1.75;71.92
13974;BME280;7060;43.770;4.008;2023-02-19T06:45:16;102128.34;;;1.72;71.11
13974;BME280;7060;43.770;4.008;2023-02-19T06:47:45;102123.19;;;1.69;71.64
13974;BME280;7060;43.770;4.008;2023-02-19T06:50:13;102120.59;;;1.67;71.57
13974;BME280;7060;43.770;4.008;2023-02-19T06:52:41;102119.69;;;1.68;71.44
13974;BME280;7060;43.770;4.008;2023-02-19T06:55:11;102118.78;;;1.69;71.53
13974;BME280;7060;43.770;4.008;2023-02-19T06:57:40;102116.19;;;1.68;72.33
13974;BME280;7060;43.770;4.008;2023-02-19T07:00:09;102118.59;;;1.74;72.04
13974;BME280;7060;43.770;4.008;2023-02-19T07:02:38;102120.31;;;1.75;71.76
13974;BME280;7060;43.770;4.008;2023-02-19T07:05:06;102126.38;;;1.77;71.81
13974;BME280;7060;43.770;4.008;2023-02-19T07:07:35;102119.19;;;1.82;72.18
13974;BME280;7060;43.770;4.008;2023-02-19T07:10:04;102120.69;;;1.89;71.99
13974;BME280;7060;43.770;4.008;2023-02-19T07:12:34;102122.19;;;1.96;71.80
13974;BME280;7060;43.770;4.008;2023-02-19T07:15:02;102127.50;;;1.95;71.84
13974;BME280;7060;43.770;4.008;2023-02-19T07:17:32;102130.91;;;1.98;72.48
13974;BME280;7060;43.770;4.008;2023-02-19T07:20:01;102128.31;;;1.97;72.47
13974;BME280;7060;43.770;4.008;2023-02-19T07:22:30;102127.22;;;2.02;72.31
13974;BME280;7060;43.770;4.008;2023-02-19T07:24:59;102133.06;;;2.11;73.21
13974;BME280;7060;43.770;4.008;2023-02-19T07:27:27;102136.16;;;2.22;72.61
13974;BME280;7060;43.770;4.008;2023-02-19T07:29:57;102149.06;;;2.29;72.63
13974;BME280;7060;43.770;4.008;2023-02-19T07:32:26;102147.09;;;2.34;73.18
13974;BME280;7060;43.770;4.008;2023-02-19T07:34:55;102149.09;;;2.51;73.09
13974;BME280;7060;43.770;4.008;2023-02-19T07:37:23;102150.09;;;2.70;74.62
13974;BME280;7060;43.770;4.008;2023-02-19T07:39:51;102157.16;;;2.92;74.39
13974;BME280;7060;43.770;4.008;2023-02-19T07:42:20;102143.84;;;3.15;74.39
13974;BME280;7060;43.770;4.008;2023-02-19T07:44:48;102139.97;;;3.44;76.24
13974;BME280;7060;43.770;4.008;2023-02-19T07:47:18;102137.97;;;3.90;76.27
13974;BME280;7060;43.770;4.008;2023-02-19T07:49:46;102146.03;;;4.44;77.97
13974;BME280;7060;43.770;4.008;2023-02-19T07:52:15;102136.06;;;5.04;78.11
13974;BME280;7060;43.770;4.008;2023-02-19T07:54:44;102139.88;;;5.68;78.88
13974;BME280;7060;43.770;4.008;2023-02-19T07:57:12;102129.59;;;6.28;78.51
13974;BME280;7060;43.770;4.008;2023-02-19T07:59:41;102123.56;;;6.87;77.36
13974;BME280;7060;43.770;4.008;2023-02-19T08:02:14;102132.63;;;7.44;77.04
13974;BME280;7060;43.770;4.008;2023-02-19T08:05:02;102128.97;;;7.90;74.67
13974;BME280;7060;43.770;4.008;2023-02-19T08:07:31;102150.53;;;8.42;72.53
13974;BME280;7060;43.770;4.008;2023-02-19T08:10:00;102147.63;;;8.73;70.70
13974;BME280;7060;43.770;4.008;2023-02-19T08:12:42;102158.81;;;9.20;70.41
13974;BME280;7060;43.770;4.008;2023-02-19T08:15:28;102152.88;;;9.41;68.40
13974;BME280;7060;43.770;4.008;2023-02-19T08:17:56;102160.22;;;9.65;67.66
13974;BME280;7060;43.770;4.008;2023-02-19T08:20:26;102162.91;;;9.90;67.38
13974;BME280;7060;43.770;4.008;2023-02-19T08:22:54;102159.66;;;10.10;66.60
13974;BME280;7060;43.770;4.008;2023-02-19T08:25:23;102150.00;;;10.33;66.18
13974;BME280;7060;43.770;4.008;2023-02-19T08:27:51;102153.28;;;10.49;65.49
13974;BME280;7060;43.770;4.008;2023-02-19T08:30:20;102151.25;;;10.53;64.37
13974;BME280;7060;43.770;4.008;2023-02-19T08:32:49;102151.56;;;10.61;63.55
13974;BME280;7060;43.770;4.008;2023-02-19T08:35:17;102157.06;;;10.47;63.89
13974;BME280;7060;43.770;4.008;2023-02-19T08:37:47;102162.09;;;10.39;64.34
13974;BME280;7060;43.770;4.008;2023-02-19T08:40:16;102162.84;;;10.41;64.49
13974;BME280;7060;43.770;4.008;2023-02-19T08:42:44;102159.00;;;10.45;64.39
13974;BME280;7060;43.770;4.008;2023-02-19T08:45:13;102161.44;;;10.48;64.75
13974;BME280;7060;43.770;4.008;2023-02-19T08:47:41;102175.13;;;10.43;65.22
13974;BME280;7060;43.770;4.008;2023-02-19T08:50:10;102177.59;;;10.46;65.21
13974;BME280;7060;43.770;4.008;2023-02-19T08:52:39;102167.75;;;10.47;65.82
13974;BME280;7060;43.770;4.008;2023-02-19T08:55:09;102167.28;;;10.53;65.85
13974;BME280;7060;43.770;4.008;2023-02-19T08:57:37;102170.31;;;10.48;66.45
13974;BME280;7060;43.770;4.008;2023-02-19T09:00:08;102163.88;;;10.51;66.50
13974;BME280;7060;43.770;4.008;2023-02-19T09:02:36;102161.72;;;10.56;66.60
13974;BME280;7060;43.770;4.008;2023-02-19T09:05:05;102164.69;;;10.64;66.73
13974;BME280;7060;43.770;4.008;2023-02-19T09:07:34;102158.91;;;10.70;66.62
13974;BME280;7060;43.770;4.008;2023-02-19T09:10:03;102157.28;;;10.80;67.04
13974;BME280;7060;43.770;4.008;2023-02-19T09:12:33;102154.78;;;10.90;66.83
13974;BME280;7060;43.770;4.008;2023-02-19T09:15:02;102149.63;;;11.00;66.85
13974;BME280;7060;43.770;4.008;2023-02-19T09:17:31;102145.38;;;11.08;67.17
13974;BME280;7060;43.770;4.008;2023-02-19T09:20:01;102135.81;;;11.17;67.06
13974;BME280;7060;43.770;4.008;2023-02-19T09:22:30;102147.56;;;11.27;67.00
13974;BME280;7060;43.770;4.008;2023-02-19T09:24:58;102143.19;;;11.37;67.01
13974;BME280;7060;43.770;4.008;2023-02-19T09:27:26;102138.84;;;11.47;66.84
13974;BME280;7060;43.770;4.008;2023-02-19T09:29:59;102145.22;;;11.58;66.73
13974;BME280;7060;43.770;4.008;2023-02-19T09:32:29;102142.31;;;11.72;67.27
13974;BME280;7060;43.770;4.008;2023-02-19T09:34:57;102146.72;;;11.84;66.59
13974;BME280;7060;43.770;4.008;2023-02-19T09:37:26;102128.44;;;11.89;66.23
13974;BME280;7060;43.770;4.008;2023-02-19T09:39:55;102144.94;;;12.07;66.54
13974;BME280;7060;43.770;4.008;2023-02-19T09:42:26;102137.03;;;12.16;65.65
13974;BME280;7060;43.770;4.008;2023-02-19T09:44:58;102142.50;;;12.26;64.72
13974;BME280;7060;43.770;4.008;2023-02-19T09:47:29;102142.03;;;12.32;64.46
13974;BME280;7060;43.770;4.008;2023-02-19T09:50:01;102105.69;;;12.28;64.27
13974;BME280;7060;43.770;4.008;2023-02-19T09:52:35;102137.72;;;12.52;63.73
13974;BME280;7060;43.770;4.008;2023-02-19T09:55:13;102137.00;;;12.61;63.41
13974;BME280;7060;43.770;4.008;2023-02-19T09:57:42;102122.06;;;12.68;62.99
13974;BME280;7060;43.770;4.008;2023-02-19T10:00:21;102091.25;;;12.63;62.09
13974;BME280;7060;43.770;4.008;2023-02-19T10:02:53;102029.28;;;12.34;61.66
13974;BME280;7060;43.770;4.008;2023-02-19T10:05:22;102110.19;;;12.93;61.75
13974;BME280;7060;43.770;4.008;2023-02-19T10:07:53;102106.25;;;12.97;61.43
13974;BME280;7060;43.770;4.008;2023-02-19T10:10:28;102111.19;;;13.13;60.91
13974;BME280;7060;43.770;4.008;2023-02-19T10:13:10;102120.16;;;13.23;61.14
13974;BME280;7060;43.770;4.008;2023-02-19T10:15:45;102118.94;;;13.27;60.41
13974;BME280;7060;43.770;4.008;2023-02-19T10:18:19;102127.31;;;13.34;60.07
13974;BME280;7060;43.770;4.008;2023-02-19T10:20:50;102130.25;;;13.42;59.84
13974;BME280;7060;43.770;4.008;2023-02-19T10:23:19;102134.25;;;13.47;60.18
13974;BME280;7060;43.770;4.008;2023-02-19T10:25:51;102138.09;;;13.54;59.33
13974;BME280;7060;43.770;4.008;2023-02-19T10:28:26;102136.88;;;13.59;59.51
13974;BME280;7060;43.770;4.008;2023-02-19T10:30:59;102135.38;;;13.66;59.09
13974;BME280;7060;43.770;4.008;2023-02-19T10:33:28;102088.34;;;13.39;58.69
13974;BME280;7060;43.770;4.008;2023-02-19T10:35:58;102132.63;;;13.77;58.64
13974;BME280;7060;43.770;4.008;2023-02-19T10:38:29;102124.97;;;13.82;58.53
13974;BME280;7060;43.770;4.008;2023-02-19T10:41:01;102121.50;;;13.91;59.15
13974;BME280;7060;43.770;4.008;2023-02-19T10:43:32;102127.94;;;14.00;58.31
13974;BME280;7060;43.770;4.008;2023-02-19T10:46:06;102099.16;;;13.90;57.93
13974;BME280;7060;43.770;4.008;2023-02-19T10:48:45;102118.09;;;14.19;58.67
13974;BME280;7060;43.770;4.008;2023-02-19T10:51:17;102122.41;;;14.32;57.37
13974;BME280;7060;43.770;4.008;2023-02-19T10:53:49;102117.59;;;14.45;58.07
13974;BME280;7060;43.770;4.008;2023-02-19T10:56:23;102113.13;;;14.55;56.83
13974;BME280;7060;43.770;4.008;2023-02-19T10:58:52;102124.03;;;14.63;56.36
13974;BME280;7060;43.770;4.008;2023-02-19T11:01:23;102113.59;;;14.70;56.14
13974;BME280;7060;43.770;4.008;2023-02-19T11:04:13;102119.28;;;14.76;55.73
13974;BME280;7060;43.770;4.008;2023-02-19T11:06:44;102114.59;;;14.78;55.53
13974;BME280;7060;43.770;4.008;2023-02-19T11:09:24;102104.13;;;14.85;55.70
13974;BME280;7060;43.770;4.008;2023-02-19T11:11:55;102104.69;;;14.98;55.79
13974;BME280;7060;43.770;4.008;2023-02-19T11:14:25;102105.56;;;15.08;55.49
13974;BME280;7060;43.770;4.008;2023-02-19T11:16:58;102091.91;;;15.19;55.18
13974;BME280;7060;43.770;4.008;2023-02-19T11:19:30;102090.78;;;15.32;55.21
13974;BME280;7060;43.770;4.008;2023-02-19T11:22:17;102083.94;;;15.47;54.74
13974;BME280;7060;43.770;4.008;2023-02-19T11:24:48;102087.88;;;15.62;55.31
13974;BME280;7060;43.770;4.008;2023-02-19T11:27:23;102071.69;;;15.72;54.63
13974;BME280;7060;43.770;4.008;2023-02-19T11:29:52;102080.81;;;15.98;54.40
13974;BME280;7060;43.770;4.008;2023-02-19T11:32:27;102076.34;;;16.16;53.44
13974;BME280;7060;43.770;4.008;2023-02-19T11:35:16;102063.66;;;16.26;52.73
13974;BME280;7060;43.770;4.008;2023-02-19T11:37:56;102064.31;;;16.38;53.17
13974;BME280;7060;43.770;4.008;2023-02-19T11:40:36;102067.66;;;16.50;52.54
13974;BME280;7060;43.770;4.008;2023-02-19T11:43:15;102072.50;;;16.64;51.51
13974;BME280;7060;43.770;4.008;2023-02-19T11:45:51;102069.09;;;16.72;51.91
13974;BME280;7060;43.770;4.008;2023-02-19T11:48:41;102068.00;;;16.82;51.84
13974;BME280;7060;43.770;4.008;2023-02-19T11:51:21;102057.97;;;16.92;51.43
13974;BME280;7060;43.770;4.008;2023-02-19T11:54:02;102054.34;;;17.02;51.02
13974;BME280;7060;43.770;4.008;2023-02-19T11:56:35;102047.97;;;17.11;50.58
13974;BME280;7060;43.770;4.008;2023-02-19T11:59:06;102051.59;;;17.19;50.26
13974;BME280;7060;43.770;4.008;2023-02-19T12:02:06;102049.13;;;17.26;49.36
13974;BME280;7060;43.770;4.008;2023-02-19T12:05:11;102044.41;;;17.28;49.18
13974;BME280;7060;43.770;4.008;2023-02-19T12:08:01;102033.28;;;17.31;48.90
13974;BME280;7060;43.770;4.008;2023-02-19T12:10:44;102025.38;;;17.38;48.74
13974;BME280;7060;43.770;4.008;2023-02-19T12:13:21;102028.66;;;17.49;48.87
13974;BME280;7060;43.770;4.008;2023-02-19T12:16:05;102012.97;;;17.53;48.76
13974;BME280;7060;43.770;4.008;2023-02-19T12:19:03;102014.56;;;17.64;47.67
13974;BME280;7060;43.770;4.008;2023-02-19T12:21:59;102009.53;;;17.69;47.02
13974;BME280;7060;43.770;4.008;2023-02-19T12:24:49;102001.94;;;17.72;46.42
13974;BME280;7060;43.770;4.008;2023-02-19T12:27:38;101991.81;;;17.74;47.00
13974;BME280;7060;43.770;4.008;2023-02-19T12:30:36;101988.09;;;17.75;46.39
13974;BME280;7060;43.770;4.008;2023-02-19T12:33:33;101967.50;;;17.82;46.64
13974;BME280;7060;43.770;4.008;2023-02-19T12:36:14;101970.75;;;17.94;46.78
13974;BME280;7060;43.770;4.008;2023-02-19T12:38:57;101961.81;;;18.02;46.45
13974;BME280;7060;43.770;4.008;2023-02-19T12:41:36;101960.31;;;18.07;46.08
13974;BME280;7060;43.770;4.008;2023-02-19T12:44:10;101952.88;;;18.17;45.79
13974;BME280;7060;43.770;4.008;2023-02-19T12:46:47;101949.84;;;18.20;45.48
13974;BME280;7060;43.770;4.008;2023-02-19T12:49:22;101943.44;;;18.30;44.41
13974;BME280;7060;43.770;4.008;2023-02-19T12:51:55;101932.78;;;18.36;44.70
13974;BME280;7060;43.770;4.008;2023-02-19T12:54:29;101928.22;;;18.45;44.41
13974;BME280;7060;43.770;4.008;2023-02-19T12:57:03;101929.44;;;18.50;43.74
13974;BME280;7060;43.770;4.008;2023-02-19T12:59:36;101925.53;;;18.53;42.67
13974;BME280;7060;43.770;4.008;2023-02-19T13:02:13;101919.47;;;18.59;42.13
13974;BME280;7060;43.770;4.008;2023-02-19T13:04:47;101920.47;;;18.66;41.90
13974;BME280;7060;43.770;4.008;2023-02-19T13:07:20;101907.25;;;18.71;41.82
13974;BME280;7060;43.770;4.008;2023-02-19T13:09:57;101905.56;;;18.78;42.42
13974;BME280;7060;43.770;4.008;2023-02-19T13:12:28;101903.88;;;18.85;41.71
13974;BME280;7060;43.770;4.008;2023-02-19T13:15:00;101900.47;;;18.91;41.42
13974;BME280;7060;43.770;4.008;2023-02-19T13:17:36;101899.13;;;18.96;40.34
13974;BME280;7060;43.770;4.008;2023-02-19T13:20:14;101893.16;;;19.00;40.32
13974;BME280;7060;43.770;4.008;2023-02-19T13:22:50;101895.00;;;19.00;39.74
13974;BME280;7060;43.770;4.008;2023-02-19T13:25:51;101895.69;;;19.02;39.69
13974;BME280;7060;43.770;4.008;2023-02-19T13:28:36;101883.81;;;19.03;39.81
13974;BME280;7060;43.770;4.008;2023-02-19T13:31:21;101887.56;;;19.02;40.35
13974;BME280;7060;43.770;4.008;2023-02-19T13:34:03;101879.47;;;18.93;39.32
13974;BME280;7060;43.770;4.008;2023-02-19T13:36:34;101804.00;;;18.50;39.42
13974;BME280;7060;43.770;4.008;2023-02-19T13:39:04;101873.72;;;18.88;39.95